Time;durP1;ratioP1;P1;durP2;ratioP2;P2;SDS_P1;SDS_P2;PMS_P1;PMS_P2;Temp;Humidity;BMP_temperature;BMP_pressure;BME280_temperature;BME280_humidity;BME280_pressure;Samples;Min_cycle;Max_cycle;Signal;HPM_P1;HPM_P2
2021/12/23 00:01:02;;;;;;;60.58;37.60;;;-2.00;98.30;;;;;;4146621;28;20212;-78
2021/12/23 00:03:06;;;;;;;55.17;33.85;;;-1.90;98.30;;;;;;4145362;28;20227;-76
2021/12/23 00:05:10;;;;;;;54.83;34.35;;;-1.90;98.30;;;;;;4146702;28;20215;-77
2021/12/23 00:07:13;;;;;;;60.50;34.05;;;-2.00;98.30;;;;;;4150128;28;20218;-76
2021/12/23 00:09:16;;;;;;;51.65;33.95;;;-2.00;98.30;;;;;;4150659;28;20295;-76
2021/12/23 00:11:19;;;;;;;55.85;33.55;;;-2.00;98.30;;;;;;4144557;28;20671;-77
2021/12/23 00:13:23;;;;;;;55.78;33.38;;;-2.10;98.30;;;;;;4145100;28;20208;-76
2021/12/23 00:15:31;;;;;;;53.78;33.25;;;-2.00;98.30;;;;;;4146354;28;20207;-77
2021/12/23 00:17:55;;;;;;;56.35;35.42;;;-2.00;98.30;;;;;;4145876;28;20234;-76
2021/12/23 00:23:23;;;;;;;46.97;32.35;;;-2.00;98.30;;;;;;4144325;28;20211;-77
2021/12/23 00:24:44;;;;;;;53.90;32.47;;;-2.00;98.30;;;;;;4144124;28;20212;-78
2021/12/23 00:26:47;;;;;;;56.88;33.00;;;-2.00;98.30;;;;;;4145254;28;20207;-77
2021/12/23 00:28:50;;;;;;;50.88;32.20;;;-2.00;98.30;;;;;;4144075;28;20239;-78
2021/12/23 00:30:55;;;;;;;53.90;33.85;;;-1.90;98.30;;;;;;4145315;28;20671;-77
2021/12/23 00:32:58;;;;;;;56.42;33.45;;;-2.00;98.30;;;;;;4143053;28;20295;-77
2021/12/23 00:35:01;;;;;;;54.40;33.10;;;-2.00;98.30;;;;;;4144701;28;20214;-78
2021/12/23 00:37:11;;;;;;;53.33;33.08;;;-2.00;98.30;;;;;;4143148;28;20203;-77
2021/12/23 00:39:16;;;;;;;56.08;35.42;;;-2.00;98.30;;;;;;4146184;28;20215;-76
2021/12/23 00:41:19;;;;;;;51.58;32.13;;;-2.00;98.30;;;;;;4141030;28;20215;-77
2021/12/23 00:43:22;;;;;;;53.40;33.08;;;-2.00;98.30;;;;;;4139363;28;20230;-76
2021/12/23 00:45:25;;;;;;;50.58;32.40;;;-1.90;98.30;;;;;;4138559;28;20507;-77
2021/12/23 00:47:30;;;;;;;55.05;34.42;;;-2.00;98.30;;;;;;4138637;28;20228;-78
2021/12/23 00:49:33;;;;;;;53.63;34.10;;;-1.90;98.30;;;;;;4139516;28;20212;-76
2021/12/23 00:51:36;;;;;;;49.88;32.22;;;-2.00;98.30;;;;;;4135982;28;20324;-77
2021/12/23 00:53:40;;;;;;;53.45;32.50;;;-2.00;98.30;;;;;;4154234;28;20210;-78
2021/12/23 00:55:43;;;;;;;53.33;31.63;;;-1.90;98.30;;;;;;4144623;28;20216;-79
2021/12/23 00:57:46;;;;;;;52.40;32.30;;;-1.90;98.30;;;;;;4144469;28;20281;-77
2021/12/23 00:59:49;;;;;;;53.03;32.33;;;-1.90;98.30;;;;;;4144806;28;20602;-78
2021/12/23 01:01:52;;;;;;;51.72;31.20;;;-2.00;98.30;;;;;;4137387;28;20626;-78
2021/12/23 01:04:04;;;;;;;55.20;31.90;;;-2.00;98.30;;;;;;4144118;28;20215;-77
2021/12/23 01:06:07;;;;;;;50.05;32.30;;;-2.00;98.30;;;;;;4140187;28;20211;-78
2021/12/23 01:08:10;;;;;;;47.33;30.25;;;-2.00;98.30;;;;;;4143800;28;20243;-79
2021/12/23 01:10:13;;;;;;;48.63;31.08;;;-2.00;98.30;;;;;;4144537;28;20204;-78
2021/12/23 01:12:19;;;;;;;49.05;32.13;;;-2.00;98.30;;;;;;4145234;28;20273;-77
2021/12/23 01:14:39;;;;;;;48.40;30.38;;;-1.90;98.30;;;;;;4145011;28;20206;-78
2021/12/23 01:17:00;;;;;;;47.72;30.83;;;-2.00;98.30;;;;;;4143535;28;20643;-78
2021/12/23 01:19:11;;;;;;;48.88;32.30;;;-1.90;98.30;;;;;;4139555;28;20254;-78
2021/12/23 01:21:17;;;;;;;47.40;30.02;;;-1.90;98.30;;;;;;4140866;28;20216;-77
2021/12/23 01:23:22;;;;;;;49.45;29.90;;;-1.90;98.30;;;;;;4144502;28;20596;-76
2021/12/23 01:25:25;;;;;;;45.33;28.42;;;-1.80;98.30;;;;;;4138520;28;20219;-76
2021/12/23 01:27:28;;;;;;;48.20;29.95;;;-1.80;98.30;;;;;;4145284;28;20708;-77
2021/12/23 01:29:31;;;;;;;43.75;28.80;;;-1.80;98.30;;;;;;4145832;28;20651;-78
2021/12/23 01:31:36;;;;;;;53.72;30.80;;;-1.80;98.30;;;;;;4139542;28;20216;-78
2021/12/23 01:33:39;;;;;;;47.97;28.85;;;-1.80;98.30;;;;;;4143091;28;20721;-78
2021/12/23 01:35:47;;;;;;;43.75;26.88;;;-1.80;98.30;;;;;;4144732;28;20339;-77
2021/12/23 01:37:50;;;;;;;42.47;27.92;;;-1.70;98.30;;;;;;4144979;28;20669;-78
2021/12/23 01:39:52;;;;;;;44.38;28.05;;;-1.70;98.30;;;;;;4145513;28;20269;-78
2021/12/23 01:41:55;;;;;;;44.10;26.70;;;-1.70;98.30;;;;;;4145238;28;20203;-77
2021/12/23 01:43:59;;;;;;;45.85;27.95;;;-1.70;98.30;;;;;;4145455;28;20733;-77
2021/12/23 01:46:02;;;;;;;47.38;27.73;;;-1.80;98.30;;;;;;4145679;28;20203;-77
2021/12/23 01:48:05;;;;;;;47.67;28.20;;;-1.70;98.30;;;;;;4141599;28;20228;-79
2021/12/23 01:50:11;;;;;;;45.40;28.60;;;-1.80;98.30;;;;;;4143009;28;20207;-77
2021/12/23 01:52:15;;;;;;;44.90;29.40;;;-1.70;98.30;;;;;;4145081;28;20219;-79
2021/12/23 01:54:18;;;;;;;41.13;29.55;;;-1.80;98.30;;;;;;4144969;28;20748;-79
2021/12/23 01:56:20;;;;;;;46.55;28.92;;;-1.80;98.30;;;;;;4141858;28;20720;-78
2021/12/23 01:58:23;;;;;;;40.25;27.25;;;-1.70;98.30;;;;;;4145231;28;20231;-77
2021/12/23 02:00:29;;;;;;;48.58;30.45;;;-1.70;98.30;;;;;;4143823;28;20209;-78
2021/12/23 02:02:33;;;;;;;44.70;28.50;;;-1.70;98.30;;;;;;4143423;28;20204;-77
2021/12/23 02:04:36;;;;;;;40.67;26.73;;;-1.70;98.30;;;;;;4144671;28;20227;-78
2021/12/23 02:06:39;;;;;;;39.85;26.52;;;-1.70;98.30;;;;;;4145381;28;20208;-79
2021/12/23 02:08:44;;;;;;;38.00;25.55;;;-1.70;98.30;;;;;;4145622;28;20294;-77
2021/12/23 02:10:47;;;;;;;44.03;27.17;;;-1.70;98.30;;;;;;4145313;28;20211;-79
2021/12/23 02:12:51;;;;;;;39.75;27.60;;;-1.70;98.30;;;;;;4144865;28;20220;-78
2021/12/23 02:14:54;;;;;;;42.67;25.48;;;-1.70;98.30;;;;;;4137176;28;20215;-78
2021/12/23 02:16:57;;;;;;;41.75;27.33;;;-1.70;98.30;;;;;;4142415;28;20207;-77
2021/12/23 02:19:00;;;;;;;42.13;25.88;;;-1.60;98.30;;;;;;4144900;28;20841;-78
2021/12/23 02:21:28;;;;;;;41.90;25.60;;;-1.60;98.30;;;;;;4139703;28;20207;-78
2021/12/23 02:23:31;;;;;;;36.63;24.95;;;-1.60;98.30;;;;;;4139305;28;20211;-77
2021/12/23 02:25:34;;;;;;;37.60;24.30;;;-1.50;98.30;;;;;;4144469;28;20211;-77
2021/12/23 02:27:37;;;;;;;39.05;25.00;;;-1.50;98.30;;;;;;4260051;22;20227;-79
2021/12/23 02:29:41;;;;;;;35.05;24.13;;;-1.50;98.30;;;;;;4142752;28;20211;-78
2021/12/23 02:31:49;;;;;;;37.65;25.13;;;-1.60;98.30;;;;;;4141452;28;20220;-77
2021/12/23 02:33:55;;;;;;;36.50;24.17;;;-1.40;98.30;;;;;;4145023;28;20215;-77
2021/12/23 02:36:00;;;;;;;38.65;24.75;;;-1.50;98.30;;;;;;4145174;28;20729;-77
2021/12/23 02:38:07;;;;;;;40.28;24.58;;;-1.60;98.30;;;;;;4145291;28;20227;-77
2021/12/23 02:40:13;;;;;;;36.13;24.80;;;-1.70;98.30;;;;;;4127824;28;20223;-77
2021/12/23 02:42:18;;;;;;;36.65;24.38;;;-1.60;98.30;;;;;;4145175;28;20646;-77
2021/12/23 02:44:21;;;;;;;41.67;25.23;;;-1.60;98.30;;;;;;4145091;28;20232;-77
2021/12/23 02:46:24;;;;;;;38.60;23.90;;;-1.70;98.30;;;;;;4145311;28;20220;-78
2021/12/23 02:48:30;;;;;;;35.20;24.23;;;-1.60;98.30;;;;;;4138056;28;20605;-77
2021/12/23 02:50:33;;;;;;;36.92;24.77;;;-1.70;98.30;;;;;;4144239;28;20220;-77
2021/12/23 02:52:37;;;;;;;38.63;24.88;;;-1.60;98.30;;;;;;4147944;28;20216;-77
2021/12/23 02:54:41;;;;;;;39.15;24.40;;;-1.60;98.30;;;;;;4148022;28;20214;-78
2021/12/23 02:56:44;;;;;;;33.80;24.42;;;-1.50;98.30;;;;;;4148250;28;20240;-77
2021/12/23 02:58:47;;;;;;;38.28;25.25;;;-1.50;98.30;;;;;;4148186;28;20208;-78
2021/12/23 03:00:52;;;;;;;40.55;25.25;;;-1.50;98.30;;;;;;4147736;28;20215;-77
2021/12/23 03:02:56;;;;;;;36.28;25.48;;;-1.40;98.30;;;;;;4147766;28;20679;-78
2021/12/23 03:04:59;;;;;;;38.13;24.75;;;-1.50;98.30;;;;;;4147929;28;20259;-77
2021/12/23 03:07:02;;;;;;;35.70;24.35;;;-1.50;98.30;;;;;;4147929;28;20251;-77
2021/12/23 03:09:05;;;;;;;36.55;24.30;;;-1.50;98.30;;;;;;4148099;28;20223;-78
2021/12/23 03:11:17;;;;;;;37.30;23.45;;;-1.50;98.30;;;;;;4148154;28;20226;-77
2021/12/23 03:13:20;;;;;;;39.30;26.17;;;-1.60;98.30;;;;;;4156501;28;20260;-77
2021/12/23 03:15:23;;;;;;;36.22;25.52;;;-1.60;98.30;;;;;;4148959;28;20218;-78
2021/12/23 03:17:26;;;;;;;38.22;24.75;;;-1.60;98.30;;;;;;4149811;28;20231;-77
2021/12/23 03:19:29;;;;;;;39.05;25.15;;;-1.70;98.30;;;;;;4147826;28;20597;-77
2021/12/23 03:21:32;;;;;;;35.53;26.08;;;-1.60;98.30;;;;;;4147518;28;20262;-78
2021/12/23 03:23:35;;;;;;;38.70;24.17;;;-1.70;98.30;;;;;;4144615;28;20221;-77
2021/12/23 03:25:38;;;;;;;40.20;25.95;;;-1.70;98.30;;;;;;4147805;28;20754;-77
2021/12/23 03:27:42;;;;;;;40.15;25.30;;;-1.60;98.30;;;;;;4147558;28;20251;-77
2021/12/23 03:29:45;;;;;;;37.22;25.00;;;-1.50;98.30;;;;;;4147567;28;20652;-77
2021/12/23 03:31:48;;;;;;;37.22;25.55;;;-1.70;98.30;;;;;;4147309;28;20215;-78
2021/12/23 03:33:51;;;;;;;38.33;24.25;;;-1.60;98.30;;;;;;4147554;28;20216;-77
2021/12/23 03:35:54;;;;;;;44.20;25.13;;;-1.70;98.30;;;;;;4151641;28;20616;-77
2021/12/23 03:37:57;;;;;;;37.22;25.40;;;-1.70;98.30;;;;;;4149651;28;20238;-78
2021/12/23 03:40:00;;;;;;;35.80;24.77;;;-1.60;98.30;;;;;;4145144;28;20219;-77
2021/12/23 03:42:04;;;;;;;35.08;24.98;;;-1.70;98.30;;;;;;4147430;28;20699;-78
2021/12/23 03:44:08;;;;;;;37.63;25.92;;;-1.70;98.30;;;;;;4147688;28;20652;-78
2021/12/23 03:46:11;;;;;;;37.17;25.38;;;-1.70;98.30;;;;;;4147188;28;20231;-77
2021/12/23 03:48:16;;;;;;;36.17;25.27;;;-1.60;98.30;;;;;;4147222;28;20645;-77
2021/12/23 03:50:21;;;;;;;38.88;26.42;;;-1.60;98.30;;;;;;4147495;28;20322;-77
2021/12/23 03:52:24;;;;;;;38.13;26.50;;;-1.60;98.30;;;;;;4146530;28;20215;-78
2021/12/23 03:54:27;;;;;;;40.83;25.10;;;-1.60;98.30;;;;;;4145633;28;20207;-77
2021/12/23 03:56:30;;;;;;;38.70;26.50;;;-1.50;98.30;;;;;;4147325;28;20211;-77
2021/12/23 03:58:33;;;;;;;37.95;25.48;;;-1.50;98.30;;;;;;4147041;28;20214;-77
2021/12/23 04:00:38;;;;;;;42.22;26.73;;;-1.60;98.30;;;;;;4144375;28;20219;-77
2021/12/23 04:02:41;;;;;;;38.03;26.55;;;-1.60;98.30;;;;;;4146219;28;20296;-78
2021/12/23 04:04:45;;;;;;;40.15;25.55;;;-1.60;98.30;;;;;;4146285;28;20309;-78
2021/12/23 04:06:48;;;;;;;37.38;25.30;;;-1.60;98.30;;;;;;4147117;28;20809;-78
2021/12/23 04:08:51;;;;;;;40.03;25.15;;;-1.50;98.30;;;;;;4147257;28;20261;-77
2021/12/23 04:10:58;;;;;;;41.00;24.70;;;-1.60;98.30;;;;;;4146799;28;20646;-78
2021/12/23 04:13:01;;;;;;;39.28;25.75;;;-1.70;98.30;;;;;;4146985;28;20297;-77
2021/12/23 04:15:05;;;;;;;36.90;23.98;;;-1.60;98.30;;;;;;4146836;28;20210;-78
2021/12/23 04:17:13;;;;;;;36.17;24.95;;;-1.50;98.30;;;;;;4146884;28;20317;-78
2021/12/23 04:19:16;;;;;;;35.80;25.05;;;-1.60;98.30;;;;;;4146774;28;20215;-77
2021/12/23 04:21:19;;;;;;;38.10;25.30;;;-1.60;98.30;;;;;;4146896;28;20219;-77
2021/12/23 04:23:25;;;;;;;36.20;23.80;;;-1.50;98.30;;;;;;4146997;28;20698;-78
2021/12/23 04:25:29;;;;;;;35.97;24.85;;;-1.50;98.30;;;;;;4149628;28;20306;-77
2021/12/23 04:27:32;;;;;;;41.30;25.88;;;-1.50;98.30;;;;;;4142398;28;20247;-77
2021/12/23 04:29:35;;;;;;;36.78;25.52;;;-1.50;98.30;;;;;;4146610;28;20208;-77
2021/12/23 04:31:39;;;;;;;35.83;24.85;;;-1.40;98.30;;;;;;4146575;28;20572;-78
2021/12/23 04:33:44;;;;;;;31.55;24.85;;;-1.40;98.30;;;;;;4145062;28;20575;-78
2021/12/23 04:35:47;;;;;;;33.22;23.98;;;-1.40;98.30;;;;;;4146912;28;20208;-77
2021/12/23 04:37:50;;;;;;;37.95;24.60;;;-1.40;98.30;;;;;;4146403;28;20241;-78
2021/12/23 04:39:53;;;;;;;36.42;23.83;;;-1.40;98.30;;;;;;4146366;28;20253;-80
2021/12/23 04:41:56;;;;;;;37.40;24.60;;;-1.40;98.30;;;;;;4145508;28;20215;-79
2021/12/23 04:44:00;;;;;;;35.17;24.52;;;-1.50;98.30;;;;;;4146276;28;20714;-77
2021/12/23 04:46:03;;;;;;;39.53;24.98;;;-1.50;98.30;;;;;;4146427;28;20223;-78
2021/12/23 04:48:06;;;;;;;35.70;24.58;;;-1.60;98.30;;;;;;4146505;28;20707;-77
2021/12/23 04:50:14;;;;;;;36.42;25.92;;;-1.60;98.30;;;;;;4145942;28;20254;-78
2021/12/23 04:52:17;;;;;;;34.75;24.33;;;-1.50;98.30;;;;;;4146209;28;20285;-77
2021/12/23 04:54:20;;;;;;;34.65;24.50;;;-1.60;98.30;;;;;;4145456;28;20651;-77
2021/12/23 04:56:23;;;;;;;31.55;23.40;;;-1.50;98.30;;;;;;4145156;28;20214;-77
2021/12/23 04:58:26;;;;;;;39.00;24.75;;;-1.40;98.30;;;;;;4146946;28;20582;-77
2021/12/23 05:00:29;;;;;;;39.08;24.30;;;-1.40;98.30;;;;;;4146559;28;20207;-77
2021/12/23 05:02:32;;;;;;;33.92;23.65;;;-1.50;98.30;;;;;;4146218;28;20265;-78
2021/12/23 05:04:35;;;;;;;39.95;26.23;;;-1.50;98.30;;;;;;4145810;28;20207;-77
2021/12/23 05:06:40;;;;;;;36.40;25.25;;;-1.50;98.30;;;;;;4146235;28;20246;-77
2021/12/23 05:08:44;;;;;;;34.78;24.77;;;-1.50;98.30;;;;;;4143208;28;20329;-77
2021/12/23 05:10:47;;;;;;;38.55;24.98;;;-1.50;98.30;;;;;;4148799;28;20266;-77
2021/12/23 05:12:50;;;;;;;38.00;24.98;;;-1.50;98.30;;;;;;4143642;28;20219;-78
2021/12/23 05:14:53;;;;;;;39.95;26.00;;;-1.50;98.30;;;;;;4146217;28;20208;-79
2021/12/23 05:16:56;;;;;;;35.17;24.60;;;-1.60;98.30;;;;;;4146263;28;20294;-77
2021/12/23 05:18:59;;;;;;;35.65;24.40;;;-1.60;98.30;;;;;;4146246;28;20211;-77
2021/12/23 05:21:02;;;;;;;35.15;25.20;;;-1.60;98.30;;;;;;4145892;28;20225;-79
2021/12/23 05:23:06;;;;;;;39.88;26.35;;;-1.50;98.30;;;;;;4146181;28;20218;-77
2021/12/23 05:25:10;;;;;;;39.00;25.38;;;-1.50;98.30;;;;;;4146278;28;20211;-78
2021/12/23 05:27:13;;;;;;;34.70;25.83;;;-1.40;98.30;;;;;;4146676;28;20227;-77
2021/12/23 05:29:16;;;;;;;34.63;23.83;;;-1.40;98.30;;;;;;4146134;28;20219;-78
2021/12/23 05:31:19;;;;;;;37.05;24.48;;;-1.40;98.30;;;;;;4145865;28;20832;-77
2021/12/23 05:33:22;;;;;;;34.42;24.30;;;-1.50;98.30;;;;;;4146144;28;20836;-77
2021/12/23 05:35:30;;;;;;;33.88;24.85;;;-1.50;98.30;;;;;;4140565;28;20543;-77
2021/12/23 05:37:33;;;;;;;36.88;25.10;;;-1.50;98.30;;;;;;4145985;28;20334;-77
2021/12/23 05:39:37;;;;;;;37.50;24.33;;;-1.40;98.30;;;;;;4145986;28;20207;-78
2021/12/23 05:41:40;;;;;;;35.85;25.17;;;-1.30;98.30;;;;;;4145151;28;20211;-77
2021/12/23 05:43:43;;;;;;;38.55;24.77;;;-1.30;98.30;;;;;;4145788;28;20223;-77
2021/12/23 05:45:45;;;;;;;37.35;25.20;;;-1.30;98.30;;;;;;4141341;28;20222;-77
2021/12/23 05:47:49;;;;;;;33.20;23.80;;;-1.40;98.30;;;;;;4145868;28;20317;-77
2021/12/23 05:49:52;;;;;;;34.20;24.65;;;-1.30;98.30;;;;;;4141194;28;20215;-79
2021/12/23 05:51:58;;;;;;;34.75;24.92;;;-1.40;98.30;;;;;;4145870;28;20220;-77
2021/12/23 05:54:01;;;;;;;34.03;24.30;;;-1.40;98.30;;;;;;4145873;28;20220;-77
2021/12/23 05:56:08;;;;;;;35.75;24.77;;;-1.40;98.30;;;;;;4148596;28;20719;-78
2021/12/23 05:58:11;;;;;;;32.25;22.58;;;-1.40;98.30;;;;;;4144786;28;20285;-77
2021/12/23 06:00:18;;;;;;;36.72;25.25;;;-1.40;98.30;;;;;;4142790;28;20212;-77
2021/12/23 06:02:21;;;;;;;35.13;25.05;;;-1.40;98.30;;;;;;4145735;28;20218;-77
2021/12/23 06:04:24;;;;;;;35.10;23.50;;;-1.40;98.30;;;;;;4145653;28;20247;-77
2021/12/23 06:06:27;;;;;;;40.03;25.52;;;-1.40;98.30;;;;;;4141927;28;20258;-77
2021/12/23 06:08:30;;;;;;;36.15;24.70;;;-1.30;98.30;;;;;;4143731;28;20205;-77
2021/12/23 06:10:33;;;;;;;34.88;24.10;;;-1.40;98.30;;;;;;4145391;28;20270;-77
2021/12/23 06:12:38;;;;;;;38.40;24.85;;;-1.50;98.30;;;;;;4142735;28;20233;-78
2021/12/23 06:14:41;;;;;;;34.53;22.67;;;-1.50;98.30;;;;;;4145400;28;20218;-77
2021/12/23 06:16:44;;;;;;;33.85;24.88;;;-1.50;98.30;;;;;;4145732;28;20228;-77
2021/12/23 06:18:47;;;;;;;39.17;25.50;;;-1.40;98.30;;;;;;4142395;28;20204;-77
2021/12/23 06:20:50;;;;;;;32.22;25.48;;;-1.40;98.30;;;;;;4143955;28;20572;-77
2021/12/23 06:22:53;;;;;;;36.25;25.80;;;-1.40;98.30;;;;;;4145206;28;20200;-78
2021/12/23 06:24:56;;;;;;;40.00;26.42;;;-1.40;98.30;;;;;;4145274;28;20211;-78
2021/12/23 06:26:59;;;;;;;39.53;26.60;;;-1.40;98.30;;;;;;4147988;28;20786;-78
2021/12/23 06:29:04;;;;;;;37.58;26.50;;;-1.40;98.30;;;;;;4139332;28;20211;-78
2021/12/23 06:31:08;;;;;;;40.55;25.83;;;-1.40;98.30;;;;;;4145469;28;20211;-79
2021/12/23 06:33:12;;;;;;;33.30;24.90;;;-1.40;98.30;;;;;;4148348;28;20220;-78
2021/12/23 06:35:15;;;;;;;35.83;25.83;;;-1.40;98.30;;;;;;4141830;28;20209;-78
2021/12/23 06:37:18;;;;;;;34.47;24.50;;;-1.30;98.30;;;;;;4143128;28;20716;-78
2021/12/23 06:39:21;;;;;;;41.08;27.08;;;-1.20;98.30;;;;;;4147851;28;20403;-78
2021/12/23 06:41:24;;;;;;;39.17;24.20;;;-1.30;98.30;;;;;;4148448;28;20254;-79
2021/12/23 06:43:27;;;;;;;35.97;24.05;;;-1.30;98.30;;;;;;4148162;28;20215;-78
2021/12/23 06:45:32;;;;;;;34.58;24.67;;;-1.40;98.30;;;;;;4148365;28;20282;-77
2021/12/23 06:47:35;;;;;;;36.70;25.48;;;-1.40;98.30;;;;;;4148118;28;20224;-77
2021/12/23 06:49:38;;;;;;;37.25;25.02;;;-1.40;98.30;;;;;;4146943;28;20219;-78
2021/12/23 06:51:41;;;;;;;38.60;25.35;;;-1.40;98.30;;;;;;4147928;28;20259;-78
2021/12/23 06:53:44;;;;;;;34.75;25.58;;;-1.40;98.30;;;;;;4148201;28;20655;-78
2021/12/23 06:55:47;;;;;;;36.42;25.35;;;-1.40;98.30;;;;;;4145932;28;20643;-78
2021/12/23 06:57:55;;;;;;;32.28;23.13;;;-1.40;98.30;;;;;;4142499;28;20263;-77
2021/12/23 06:59:58;;;;;;;34.90;25.52;;;-1.40;98.30;;;;;;4147692;28;20783;-78
2021/12/23 07:02:02;;;;;;;34.83;26.60;;;-1.40;98.30;;;;;;4147796;28;20216;-78
2021/12/23 07:04:13;;;;;;;38.33;26.50;;;-1.40;98.30;;;;;;4147588;28;20211;-78
2021/12/23 07:06:20;;;;;;;38.40;25.25;;;-1.40;98.30;;;;;;4148153;28;20298;-77
2021/12/23 07:08:27;;;;;;;36.55;25.42;;;-1.30;98.30;;;;;;4147384;28;20710;-77
2021/12/23 07:10:32;;;;;;;32.15;23.88;;;-1.40;98.30;;;;;;4147071;28;20204;-77
2021/12/23 07:12:35;;;;;;;37.10;24.83;;;-1.40;98.30;;;;;;4148532;28;20879;-78
2021/12/23 07:14:38;;;;;;;36.13;25.75;;;-1.30;98.30;;;;;;4148807;28;20218;-78
2021/12/23 07:16:42;;;;;;;32.20;23.50;;;-1.30;98.30;;;;;;4146440;28;20315;-78
2021/12/23 07:18:46;;;;;;;38.35;27.13;;;-1.40;98.30;;;;;;4147095;28;20762;-77
2021/12/23 07:20:49;;;;;;;35.03;25.42;;;-1.30;98.30;;;;;;4147112;28;20223;-77
2021/12/23 07:22:53;;;;;;;34.05;25.58;;;-1.30;98.30;;;;;;4144288;28;20224;-78
2021/12/23 07:24:55;;;;;;;34.33;24.52;;;-1.30;98.30;;;;;;4147155;28;20621;-78
2021/12/23 07:26:58;;;;;;;34.05;24.35;;;-1.20;98.30;;;;;;4144541;28;20234;-78
2021/12/23 07:29:01;;;;;;;34.38;24.98;;;-1.20;98.30;;;;;;4148331;28;20212;-78
2021/12/23 07:31:04;;;;;;;34.30;24.95;;;-1.20;98.30;;;;;;4143361;28;20208;-78
2021/12/23 07:33:07;;;;;;;37.70;24.90;;;-1.10;98.30;;;;;;4145684;28;20223;-77
2021/12/23 07:35:12;;;;;;;34.40;26.05;;;-1.10;98.30;;;;;;4139336;28;20236;-77
2021/12/23 07:37:18;;;;;;;34.55;25.10;;;-1.10;98.30;;;;;;4147021;28;20228;-78
2021/12/23 07:39:21;;;;;;;38.33;25.10;;;-1.10;98.30;;;;;;4146388;28;20915;-78
2021/12/23 07:41:44;;;;;;;34.83;25.58;;;-1.00;98.30;;;;;;4142503;28;20306;-78
2021/12/23 07:44:09;;;;;;;36.75;25.95;;;-1.00;98.30;;;;;;4147514;28;20338;-78
2021/12/23 07:46:12;;;;;;;32.58;24.35;;;-1.00;98.30;;;;;;4147362;28;20254;-79
2021/12/23 07:48:15;;;;;;;32.65;24.42;;;-1.00;98.30;;;;;;4146644;28;20255;-80
2021/12/23 07:50:20;;;;;;;32.55;23.33;;;-1.00;98.30;;;;;;4146075;28;20200;-80
2021/12/23 07:52:23;;;;;;;36.35;25.70;;;-1.00;98.30;;;;;;4148824;28;20210;-79
2021/12/23 07:54:26;;;;;;;37.72;25.10;;;-1.00;98.30;;;;;;4146329;28;20214;-78
2021/12/23 07:56:29;;;;;;;33.00;22.40;;;-1.00;98.30;;;;;;4146848;28;20211;-78
2021/12/23 07:58:32;;;;;;;31.70;22.42;;;-0.90;98.30;;;;;;4142960;28;20235;-78
2021/12/23 08:00:35;;;;;;;33.08;23.00;;;-0.90;98.30;;;;;;4146449;28;20711;-77
2021/12/23 08:02:38;;;;;;;34.03;25.20;;;-1.00;98.30;;;;;;4146120;28;20670;-78
2021/12/23 08:04:41;;;;;;;34.17;24.15;;;-1.00;98.30;;;;;;4139708;28;20615;-78
2021/12/23 08:06:51;;;;;;;41.35;26.38;;;-1.00;98.30;;;;;;4140846;28;20231;-78
2021/12/23 08:08:54;;;;;;;34.95;26.08;;;-1.00;98.30;;;;;;4146060;28;20231;-78
2021/12/23 08:10:57;;;;;;;39.10;26.27;;;-0.90;98.30;;;;;;4144515;28;20222;-78
2021/12/23 08:13:01;;;;;;;41.38;27.45;;;-0.90;98.30;;;;;;4145840;28;20211;-79
2021/12/23 08:15:07;;;;;;;36.08;24.13;;;-0.80;98.30;;;;;;4142534;28;20228;-78
2021/12/23 08:17:12;;;;;;;40.10;29.05;;;-0.90;98.30;;;;;;4144489;28;20232;-79
2021/12/23 08:19:16;;;;;;;37.92;26.70;;;-0.90;98.30;;;;;;4146168;28;20213;-79
2021/12/23 08:21:19;;;;;;;38.03;25.98;;;-0.80;98.30;;;;;;4146206;28;20213;-78
2021/12/23 08:23:23;;;;;;;34.30;25.73;;;-0.80;98.30;;;;;;4142243;28;20783;-77
2021/12/23 08:25:30;;;;;;;42.60;26.05;;;-0.90;98.30;;;;;;4146278;28;20208;-79
2021/12/23 08:27:34;;;;;;;35.75;26.17;;;-0.90;98.30;;;;;;4146010;28;20258;-79
2021/12/23 08:29:37;;;;;;;39.53;27.52;;;-0.80;98.30;;;;;;4146853;28;20245;-78
2021/12/23 08:31:41;;;;;;;40.80;26.80;;;-0.80;98.30;;;;;;4146738;28;20219;-79
2021/12/23 08:33:45;;;;;;;34.75;25.60;;;-0.70;98.30;;;;;;4145885;28;20204;-78
2021/12/23 08:35:48;;;;;;;34.35;26.40;;;-0.60;98.30;;;;;;4145046;28;20491;-78
2021/12/23 08:37:52;;;;;;;36.97;25.70;;;-0.60;98.30;;;;;;4140758;28;20224;-79
2021/12/23 08:39:56;;;;;;;40.40;27.88;;;-0.60;98.30;;;;;;4146662;28;20209;-79
2021/12/23 08:41:59;;;;;;;35.20;24.58;;;-0.70;98.30;;;;;;4149033;28;20211;-79
2021/12/23 08:44:02;;;;;;;38.55;28.73;;;-0.70;98.30;;;;;;4146473;28;20276;-78
2021/12/23 08:46:05;;;;;;;35.15;26.65;;;-0.70;98.30;;;;;;4148323;28;20706;-79
2021/12/23 08:48:09;;;;;;;40.75;27.98;;;-0.60;98.30;;;;;;4144111;28;20625;-79
2021/12/23 08:50:19;;;;;;;38.70;26.80;;;-0.70;98.30;;;;;;4144020;28;20669;-78
2021/12/23 08:52:22;;;;;;;38.35;27.08;;;-0.60;98.30;;;;;;4144469;28;20555;-78
2021/12/23 08:54:25;;;;;;;35.90;26.50;;;-0.50;98.30;;;;;;4146607;28;20215;-78
2021/12/23 08:56:30;;;;;;;34.28;25.08;;;-0.50;98.30;;;;;;4139520;28;20572;-80
2021/12/23 08:58:33;;;;;;;37.40;26.40;;;-0.50;98.30;;;;;;4144153;28;20222;-78
2021/12/23 09:00:38;;;;;;;39.42;26.10;;;-0.50;98.30;;;;;;4146716;28;20656;-78
2021/12/23 09:02:42;;;;;;;36.30;26.13;;;-0.60;98.30;;;;;;4146386;28;20604;-78
2021/12/23 09:04:45;;;;;;;35.13;25.00;;;-0.60;98.30;;;;;;4147081;28;20602;-78
2021/12/23 09:06:49;;;;;;;34.42;25.77;;;-0.60;98.30;;;;;;4148072;28;20338;-77
2021/12/23 09:08:53;;;;;;;35.95;28.13;;;-0.60;98.30;;;;;;4148704;28;20235;-78
2021/12/23 09:10:58;;;;;;;57.30;38.60;;;-0.60;98.30;;;;;;4146143;28;20238;-78
2021/12/23 09:13:07;;;;;;;35.15;24.98;;;-0.60;98.30;;;;;;4145623;28;20215;-78
2021/12/23 09:15:13;;;;;;;37.30;26.48;;;-0.50;98.30;;;;;;4147587;28;20253;-80
2021/12/23 09:17:17;;;;;;;40.83;26.92;;;-0.50;98.30;;;;;;4145943;28;20315;-78
2021/12/23 09:19:20;;;;;;;38.15;27.77;;;-0.50;98.30;;;;;;4146035;28;20294;-78
2021/12/23 09:21:23;;;;;;;39.80;27.83;;;-0.40;98.30;;;;;;4145660;28;20239;-79
2021/12/23 09:23:35;;;;;;;37.65;27.63;;;-0.40;98.30;;;;;;4148921;28;20302;-78
2021/12/23 09:25:41;;;;;;;38.28;27.85;;;-0.40;98.30;;;;;;4149445;28;20211;-78
2021/12/23 09:27:56;;;;;;;35.33;25.67;;;-0.30;98.30;;;;;;4145506;28;20257;-78
2021/12/23 09:32:51;;;;;;;35.88;26.35;;;-0.50;98.30;;;;;;4145368;28;20211;-78
2021/12/23 09:34:56;;;;;;;36.05;25.27;;;-0.50;98.30;;;;;;4150524;28;20253;-78
2021/12/23 09:36:59;;;;;;;42.33;29.40;;;-0.50;98.30;;;;;;4147061;28;20311;-78
2021/12/23 09:39:04;;;;;;;34.00;25.65;;;-0.50;98.30;;;;;;4151569;28;20282;-78
2021/12/23 09:41:11;;;;;;;34.45;24.90;;;-0.50;98.30;;;;;;4145207;28;20666;-78
2021/12/23 09:43:14;;;;;;;34.92;25.50;;;-0.50;98.30;;;;;;4145849;28;20254;-79
2021/12/23 09:45:19;;;;;;;32.80;24.30;;;-0.60;98.30;;;;;;4145388;28;20206;-78
2021/12/23 09:47:23;;;;;;;39.33;26.48;;;-0.50;98.30;;;;;;4144888;28;20259;-79
2021/12/23 09:49:27;;;;;;;35.80;25.67;;;-0.50;98.30;;;;;;4145100;28;20307;-78
2021/12/23 09:51:32;;;;;;;35.53;25.55;;;-0.50;98.30;;;;;;4145412;28;20212;-80
2021/12/23 09:53:37;;;;;;;35.33;25.20;;;-0.40;98.30;;;;;;4146841;28;20234;-81
2021/12/23 09:55:41;;;;;;;33.65;25.20;;;-0.40;98.30;;;;;;4146682;28;20207;-79
2021/12/23 09:57:46;;;;;;;34.38;25.77;;;-0.30;98.30;;;;;;4146700;28;20267;-81
2021/12/23 09:59:53;;;;;;;36.70;25.75;;;-0.30;98.30;;;;;;4150961;28;20227;-79
2021/12/23 10:02:02;;;;;;;32.03;24.90;;;-0.20;98.30;;;;;;4153203;28;20723;-80
2021/12/23 10:04:08;;;;;;;33.88;25.05;;;-0.30;98.30;;;;;;4147128;28;20678;-80
2021/12/23 10:06:11;;;;;;;36.58;25.85;;;-0.20;98.30;;;;;;4151334;28;20211;-80
2021/12/23 10:08:19;;;;;;;34.50;24.48;;;-0.20;98.30;;;;;;4153654;28;20391;-80
2021/12/23 10:10:30;;;;;;;35.60;26.27;;;-0.20;98.30;;;;;;4147049;28;20242;-79
2021/12/23 10:31:28;;;;;;;36.78;25.83;;;0.00;98.30;;;;;;4145847;28;20237;-78
2021/12/23 10:33:47;;;;;;;35.60;24.85;;;-0.10;98.30;;;;;;4145375;28;20200;-78
2021/12/23 10:38:14;;;;;;;33.75;24.75;;;-0.20;98.30;;;;;;4148479;28;20713;-79
2021/12/23 10:40:18;;;;;;;34.63;24.63;;;-0.20;98.30;;;;;;4147387;28;20220;-79
2021/12/23 10:42:23;;;;;;;37.75;25.08;;;-0.20;98.30;;;;;;4147369;28;20215;-78
2021/12/23 10:44:29;;;;;;;34.78;24.02;;;-0.10;98.30;;;;;;4147733;28;20199;-79
2021/12/23 10:46:35;;;;;;;34.65;23.80;;;-0.10;98.30;;;;;;4148492;28;20667;-78
2021/12/23 10:48:52;;;;;;;36.33;24.98;;;-0.10;98.30;;;;;;4148511;28;20235;-79
2021/12/23 10:51:09;;;;;;;32.75;24.20;;;0.00;98.30;;;;;;4147505;28;20235;-78
2021/12/23 10:53:35;;;;;;;35.65;25.13;;;0.10;98.30;;;;;;4148591;28;20213;-79
2021/12/23 10:58:03;;;;;;;32.42;24.35;;;0.00;98.30;;;;;;4147889;28;20249;-79
2021/12/23 11:00:12;;;;;;;34.60;26.02;;;-0.10;98.30;;;;;;4148171;28;20220;-77
2021/12/23 11:02:20;;;;;;;34.13;26.42;;;-0.20;98.30;;;;;;4147231;28;20265;-79